Terminal Aerodrome Forecast
Issued by NWS Kansas City/Pleasant Hill, MO

Home | Current Version | Previous Version | Text Only | Print | Product List | Glossary On
Versions: 1 2 3 4 5 6 7 8 9 10 11 12 13
711
FTUS43 KEAX 292330
TAFMCI
TAF
KMCI 292330Z 3000/3024 VRB05KT P6SM SCT090
     FM300900 VRB02KT 6SM BR SKC
     FM301300 36005KT P6SM SCT090 SCT250=

USA.gov is the U.S. government's official web portal to all federal, state and local government web resources and services.